Time;durP1;ratioP1;P1;durP2;ratioP2;P2;SDS_P1;SDS_P2;PMS_P1;PMS_P2;Temp;Humidity;BMP_temperature;BMP_pressure;BME280_temperature;BME280_humidity;BME280_pressure;Samples;Min_cycle;Max_cycle;Signal;HPM_P1;HPM_P2
2022/04/06 00:01:01;;;;;;;22.10;7.25;;;;;;;;;;5281415;28;20325;-69
2022/04/06 00:03:32;;;;;;;26.85;8.88;;;;;;;;;;5280969;28;20020;-69
2022/04/06 00:06:04;;;;;;;29.40;7.70;;;;;;;;;;5285371;28;20013;-70
2022/04/06 00:08:35;;;;;;;20.88;7.07;;;;;;;;;;5284612;28;20281;-69
2022/04/06 00:11:06;;;;;;;24.10;7.35;;;;;;;;;;5284503;28;20325;-69
2022/04/06 00:13:37;;;;;;;25.45;7.78;;;;;;;;;;5284270;28;20097;-69
2022/04/06 00:16:08;;;;;;;21.02;6.35;;;;;;;;;;5284117;28;20134;-71
2022/04/06 00:18:39;;;;;;;20.58;7.15;;;;;;;;;;5284328;28;20453;-70
2022/04/06 00:21:11;;;;;;;22.50;7.28;;;;;;;;;;5284824;28;20267;-69
2022/04/06 00:23:42;;;;;;;19.55;6.80;;;;;;;;;;5283724;28;20456;-70
2022/04/06 00:26:14;;;;;;;21.50;5.78;;;;;;;;;;5284996;28;20035;-70
2022/04/06 00:28:45;;;;;;;17.70;6.22;;;;;;;;;;5284245;28;20021;-69
2022/04/06 00:31:16;;;;;;;18.90;6.55;;;;;;;;;;5283926;28;20116;-69
2022/04/06 00:33:47;;;;;;;25.38;7.18;;;;;;;;;;5284021;28;20271;-69
2022/04/06 00:36:18;;;;;;;21.38;6.53;;;;;;;;;;5284301;28;20317;-69
2022/04/06 00:38:49;;;;;;;21.25;6.90;;;;;;;;;;5283601;28;20391;-69
2022/04/06 00:41:21;;;;;;;21.32;6.40;;;;;;;;;;5284184;28;20267;-70
2022/04/06 00:44:11;;;;;;;23.95;6.75;;;;;;;;;;5284403;28;20066;-70
2022/04/06 00:46:43;;;;;;;19.90;6.18;;;;;;;;;;5283950;28;20029;-70
2022/04/06 00:49:14;;;;;;;21.00;6.60;;;;;;;;;;5284327;28;20031;-70
2022/04/06 00:51:46;;;;;;;18.95;6.60;;;;;;;;;;5283030;28;20365;-70
2022/04/06 00:54:20;;;;;;;26.02;7.05;;;;;;;;;;5284293;28;20028;-69
2022/04/06 00:56:51;;;;;;;17.17;6.28;;;;;;;;;;5284445;28;20483;-70
2022/04/06 00:59:22;;;;;;;21.00;5.04;;;;;;;;;;5283112;28;20059;-70
2022/04/06 01:01:54;;;;;;;19.30;5.93;;;;;;;;;;5284166;28;20070;-69
2022/04/06 01:04:25;;;;;;;23.13;6.20;;;;;;;;;;5283373;28;20468;-70
2022/04/06 01:06:57;;;;;;;24.05;5.95;;;;;;;;;;5283301;28;20032;-70
2022/04/06 01:09:28;;;;;;;21.40;5.05;;;;;;;;;;5283695;28;20062;-71
2022/04/06 01:11:59;;;;;;;24.67;5.80;;;;;;;;;;5283878;28;20032;-70
2022/04/06 01:14:31;;;;;;;26.98;5.15;;;;;;;;;;5281869;28;20032;-70
2022/04/06 01:17:03;;;;;;;17.73;5.30;;;;;;;;;;5283320;28;20031;-69
2022/04/06 01:19:34;;;;;;;22.95;4.53;;;;;;;;;;5282419;28;20479;-69
2022/04/06 01:22:06;;;;;;;21.00;5.43;;;;;;;;;;5283922;28;20032;-70
2022/04/06 01:24:38;;;;;;;17.60;4.50;;;;;;;;;;5283373;28;20296;-70
2022/04/06 01:27:10;;;;;;;18.05;4.72;;;;;;;;;;5283094;28;20127;-70
2022/04/06 01:29:42;;;;;;;22.50;4.93;;;;;;;;;;5283010;28;20103;-70
2022/04/06 01:32:17;;;;;;;17.90;3.53;;;;;;;;;;5283503;28;20100;-70
2022/04/06 01:34:49;;;;;;;16.80;4.88;;;;;;;;;;5282513;28;20538;-70
2022/04/06 01:37:21;;;;;;;15.05;3.72;;;;;;;;;;5283206;28;20108;-70
2022/04/06 01:39:52;;;;;;;18.50;3.88;;;;;;;;;;5283532;28;20066;-69
2022/04/06 01:42:24;;;;;;;18.55;3.63;;;;;;;;;;5281858;28;20044;-70
2022/04/06 01:44:55;;;;;;;17.65;4.93;;;;;;;;;;5283567;28;20332;-70
2022/04/06 01:47:26;;;;;;;19.35;4.15;;;;;;;;;;5282122;28;20074;-70
2022/04/06 01:52:47;;;;;;;23.60;4.55;;;;;;;;;;5282897;28;20029;-70
2022/04/06 01:55:18;;;;;;;17.54;3.94;;;;;;;;;;5282140;28;20040;-70
2022/04/06 01:57:49;;;;;;;18.00;3.24;;;;;;;;;;5282938;28;20023;-69
2022/04/06 02:00:21;;;;;;;19.52;3.65;;;;;;;;;;5282733;28;20023;-71
2022/04/06 02:02:53;;;;;;;16.63;3.50;;;;;;;;;;5281862;28;20024;-70
2022/04/06 02:05:24;;;;;;;14.95;2.47;;;;;;;;;;5282248;28;20478;-69
2022/04/06 02:07:55;;;;;;;16.77;3.33;;;;;;;;;;5282973;28;20028;-69
2022/04/06 02:10:27;;;;;;;14.60;3.35;;;;;;;;;;5281334;28;20016;-70
2022/04/06 02:12:58;;;;;;;22.98;3.53;;;;;;;;;;5282579;28;20147;-70
2022/04/06 02:15:30;;;;;;;13.25;2.60;;;;;;;;;;5282033;28;20056;-70
2022/04/06 02:18:01;;;;;;;17.15;3.50;;;;;;;;;;5281757;28;20103;-69
2022/04/06 02:20:33;;;;;;;18.42;3.55;;;;;;;;;;5282145;28;20035;-70
2022/04/06 02:23:04;;;;;;;16.90;3.72;;;;;;;;;;5281808;28;20024;-69
2022/04/06 02:25:35;;;;;;;15.43;3.05;;;;;;;;;;5282025;28;20017;-71
2022/04/06 02:28:06;;;;;;;14.80;2.35;;;;;;;;;;5282285;28;20016;-70
2022/04/06 02:30:38;;;;;;;16.95;3.80;;;;;;;;;;5280831;28;20249;-71
2022/04/06 02:33:09;;;;;;;16.88;2.88;;;;;;;;;;5282374;28;20437;-70
2022/04/06 02:35:40;;;;;;;15.70;3.78;;;;;;;;;;5281633;28;20562;-68
2022/04/06 02:38:11;;;;;;;17.10;2.80;;;;;;;;;;5281418;28;20266;-69
2022/04/06 02:40:42;;;;;;;15.18;2.20;;;;;;;;;;5281427;28;20274;-70
2022/04/06 02:43:13;;;;;;;16.48;2.55;;;;;;;;;;5282448;28;20353;-70
2022/04/06 02:45:44;;;;;;;14.77;2.75;;;;;;;;;;5280657;28;20271;-68
2022/04/06 02:48:16;;;;;;;18.35;3.10;;;;;;;;;;5281979;28;20274;-69
2022/04/06 02:50:47;;;;;;;20.73;3.17;;;;;;;;;;5280600;28;20734;-69
2022/04/06 02:53:18;;;;;;;18.33;2.75;;;;;;;;;;5281612;28;20021;-70
2022/04/06 02:55:49;;;;;;;14.00;1.98;;;;;;;;;;5281542;28;20703;-69
2022/04/06 02:58:20;;;;;;;11.20;1.95;;;;;;;;;;5280931;28;20479;-70
2022/04/06 03:00:54;;;;;;;11.00;2.13;;;;;;;;;;5281541;28;20152;-70
2022/04/06 03:03:25;;;;;;;12.35;2.20;;;;;;;;;;5281252;28;20610;-70
2022/04/06 03:05:56;;;;;;;15.02;2.10;;;;;;;;;;5281168;28;20027;-70
2022/04/06 03:08:29;;;;;;;12.27;2.17;;;;;;;;;;5281154;28;20110;-70
2022/04/06 03:11:00;;;;;;;12.68;2.28;;;;;;;;;;5281826;28;20434;-70
2022/04/06 03:13:31;;;;;;;18.75;2.25;;;;;;;;;;5280084;28;20045;-71
2022/04/06 03:16:02;;;;;;;13.80;2.10;;;;;;;;;;5281667;28;20301;-71
2022/04/06 03:18:33;;;;;;;13.77;1.73;;;;;;;;;;5281163;28;20297;-68
2022/04/06 03:21:04;;;;;;;14.20;2.30;;;;;;;;;;5280901;28;20032;-68
2022/04/06 03:23:36;;;;;;;10.60;1.83;;;;;;;;;;5280921;28;20309;-68
2022/04/06 03:26:08;;;;;;;11.55;1.58;;;;;;;;;;5280690;28;20020;-71
2022/04/06 03:28:39;;;;;;;12.70;1.95;;;;;;;;;;5280905;28;20016;-71
2022/04/06 03:31:10;;;;;;;10.20;1.73;;;;;;;;;;5281645;28;20082;-70
2022/04/06 03:33:42;;;;;;;13.13;1.38;;;;;;;;;;5280025;28;20036;-68
2022/04/06 03:36:13;;;;;;;11.65;1.60;;;;;;;;;;5281338;28;20287;-71
2022/04/06 03:38:44;;;;;;;15.04;1.92;;;;;;;;;;5280110;28;20027;-70
2022/04/06 03:41:15;;;;;;;9.07;1.13;;;;;;;;;;5280316;28;20062;-70
2022/04/06 03:43:46;;;;;;;10.43;1.83;;;;;;;;;;5280697;28;20375;-69
2022/04/06 03:46:17;;;;;;;14.30;2.10;;;;;;;;;;5280892;28;20267;-69
2022/04/06 03:48:48;;;;;;;13.98;1.30;;;;;;;;;;5279987;28;20043;-69
2022/04/06 03:51:20;;;;;;;12.65;1.42;;;;;;;;;;5281131;28;20056;-69
2022/04/06 03:53:51;;;;;;;10.23;1.90;;;;;;;;;;5280803;28;20027;-69
2022/04/06 03:56:23;;;;;;;8.70;1.33;;;;;;;;;;5279847;28;20028;-71
2022/04/06 03:58:54;;;;;;;12.15;1.13;;;;;;;;;;5281239;28;20308;-70
2022/04/06 04:01:25;;;;;;;9.20;1.20;;;;;;;;;;5279757;28;20108;-70
2022/04/06 04:03:56;;;;;;;12.32;1.45;;;;;;;;;;5280964;28;20032;-70
2022/04/06 04:06:27;;;;;;;12.13;1.40;;;;;;;;;;5280111;28;20267;-70
2022/04/06 04:08:59;;;;;;;11.58;1.48;;;;;;;;;;5280013;28;20546;-67
2022/04/06 04:11:30;;;;;;;13.45;1.50;;;;;;;;;;5280293;28;20361;-68
2022/04/06 04:14:01;;;;;;;9.98;0.98;;;;;;;;;;5280731;28;20055;-68
2022/04/06 04:16:32;;;;;;;8.07;1.10;;;;;;;;;;5279214;28;20102;-69
2022/04/06 04:19:03;;;;;;;12.05;1.42;;;;;;;;;;5281114;28;20124;-68
2022/04/06 04:21:35;;;;;;;12.80;1.27;;;;;;;;;;5280347;28;20294;-69
2022/04/06 04:24:08;;;;;;;12.60;1.65;;;;;;;;;;5280207;28;20016;-70
2022/04/06 04:26:39;;;;;;;11.48;1.48;;;;;;;;;;5280265;28;20048;-70
2022/04/06 04:29:10;;;;;;;16.98;1.40;;;;;;;;;;5280441;28;20071;-70
2022/04/06 04:31:41;;;;;;;14.65;1.90;;;;;;;;;;5279485;28;20464;-69
2022/04/06 04:34:13;;;;;;;15.85;2.47;;;;;;;;;;5280740;28;20745;-70
2022/04/06 04:36:44;;;;;;;18.30;2.72;;;;;;;;;;5279255;28;20085;-70
2022/04/06 04:39:15;;;;;;;17.65;2.70;;;;;;;;;;5280557;28;20075;-70
2022/04/06 04:41:47;;;;;;;14.02;2.80;;;;;;;;;;5279920;28;20039;-70
2022/04/06 04:44:18;;;;;;;16.83;2.83;;;;;;;;;;5279618;28;20351;-70
2022/04/06 04:46:49;;;;;;;18.08;3.65;;;;;;;;;;5280278;28;20021;-70
2022/04/06 04:49:20;;;;;;;22.28;4.14;;;;;;;;;;5280168;28;20040;-70
2022/04/06 04:51:51;;;;;;;19.02;4.25;;;;;;;;;;5282560;28;20016;-69
2022/04/06 04:54:24;;;;;;;14.32;3.72;;;;;;;;;;5283633;28;20107;-70
2022/04/06 04:56:55;;;;;;;18.38;3.95;;;;;;;;;;5284212;28;20028;-70
2022/04/06 04:59:26;;;;;;;17.92;3.50;;;;;;;;;;5282895;28;20025;-70
2022/04/06 05:01:58;;;;;;;20.70;3.45;;;;;;;;;;5284198;28;20048;-70
2022/04/06 05:04:29;;;;;;;19.17;3.97;;;;;;;;;;5282355;28;20434;-70
2022/04/06 05:07:00;;;;;;;16.38;3.88;;;;;;;;;;5283863;28;20637;-70
2022/04/06 05:09:31;;;;;;;21.40;4.13;;;;;;;;;;5283239;28;20729;-70
2022/04/06 05:12:02;;;;;;;15.95;3.67;;;;;;;;;;5282815;28;20052;-70
2022/04/06 05:14:33;;;;;;;22.27;4.82;;;;;;;;;;5283210;28;20278;-70
2022/04/06 05:17:05;;;;;;;16.52;3.42;;;;;;;;;;5283596;28;20032;-70
2022/04/06 05:19:36;;;;;;;18.45;3.90;;;;;;;;;;5282361;28;20287;-70
2022/04/06 05:22:07;;;;;;;16.50;3.65;;;;;;;;;;5283463;28;20025;-70
2022/04/06 05:24:39;;;;;;;12.32;3.15;;;;;;;;;;5282835;28;20467;-70
2022/04/06 05:27:10;;;;;;;12.60;3.22;;;;;;;;;;5282756;28;20528;-70
2022/04/06 05:29:42;;;;;;;14.95;3.70;;;;;;;;;;5282902;28;20364;-70
2022/04/06 05:32:13;;;;;;;17.40;3.10;;;;;;;;;;5283390;28;20286;-70
2022/04/06 05:34:44;;;;;;;13.68;2.97;;;;;;;;;;5282115;28;20040;-70
2022/04/06 05:37:15;;;;;;;12.45;2.20;;;;;;;;;;5283197;28;20286;-70
2022/04/06 05:39:46;;;;;;;18.90;3.13;;;;;;;;;;5281707;28;20463;-70
2022/04/06 05:42:17;;;;;;;19.00;2.80;;;;;;;;;;5283126;28;20427;-70
2022/04/06 05:44:49;;;;;;;11.32;3.03;;;;;;;;;;5282733;28;20274;-71
2022/04/06 05:47:20;;;;;;;13.15;2.40;;;;;;;;;;5281906;28;20024;-71
2022/04/06 05:49:51;;;;;;;14.43;1.58;;;;;;;;;;5282796;28;20719;-71
2022/04/06 05:52:22;;;;;;;10.30;2.47;;;;;;;;;;5282360;28;20031;-71
2022/04/06 05:54:53;;;;;;;11.18;1.90;;;;;;;;;;5282335;28;20032;-69
2022/04/06 05:57:24;;;;;;;11.93;1.55;;;;;;;;;;5282372;28;20273;-71
2022/04/06 05:59:56;;;;;;;13.77;1.50;;;;;;;;;;5283086;28;20020;-69
2022/04/06 06:02:29;;;;;;;7.97;1.90;;;;;;;;;;5281351;28;20024;-71
2022/04/06 06:05:00;;;;;;;11.43;1.63;;;;;;;;;;5282600;28;20036;-69
2022/04/06 06:07:31;;;;;;;11.38;1.35;;;;;;;;;;5282122;28;20396;-69
2022/04/06 06:10:03;;;;;;;6.22;0.73;;;;;;;;;;5281630;28;20032;-70
2022/04/06 06:12:34;;;;;;;9.60;0.80;;;;;;;;;;5281881;28;20286;-69
2022/04/06 06:15:09;;;;;;;10.70;0.80;;;;;;;;;;5281695;28;20085;-69
2022/04/06 06:17:41;;;;;;;10.50;1.15;;;;;;;;;;5281914;28;20020;-70
2022/04/06 06:20:12;;;;;;;7.07;0.80;;;;;;;;;;5282543;28;20107;-71
2022/04/06 06:22:43;;;;;;;12.40;0.90;;;;;;;;;;5281061;28;20040;-70
2022/04/06 06:25:14;;;;;;;3.88;0.47;;;;;;;;;;5282187;28;20111;-69
2022/04/06 06:27:46;;;;;;;7.65;0.85;;;;;;;;;;5281732;28;20696;-70
2022/04/06 06:30:17;;;;;;;6.43;0.50;;;;;;;;;;5281463;28;20074;-70
2022/04/06 06:32:48;;;;;;;2.67;0.50;;;;;;;;;;5281802;28;20459;-69
2022/04/06 06:35:20;;;;;;;3.38;0.40;;;;;;;;;;5281819;28;20087;-70
2022/04/06 06:37:53;;;;;;;4.93;0.40;;;;;;;;;;5280967;28;20067;-70
2022/04/06 06:40:25;;;;;;;5.38;0.40;;;;;;;;;;5281468;28;20020;-70
2022/04/06 06:42:56;;;;;;;4.28;0.40;;;;;;;;;;5281420;28;20464;-70
2022/04/06 06:45:27;;;;;;;5.80;0.52;;;;;;;;;;5281339;28;20017;-70
2022/04/06 06:47:59;;;;;;;6.78;0.57;;;;;;;;;;5281917;28;20066;-69
2022/04/06 06:50:30;;;;;;;2.28;0.50;;;;;;;;;;5282165;28;20350;-70
2022/04/06 06:53:01;;;;;;;4.90;0.43;;;;;;;;;;5281636;28;20279;-69
2022/04/06 06:55:32;;;;;;;6.70;0.65;;;;;;;;;;5281401;28;20298;-71
2022/04/06 06:58:03;;;;;;;6.60;0.50;;;;;;;;;;5281061;28;20013;-70
2022/04/06 07:00:34;;;;;;;4.40;0.40;;;;;;;;;;5281378;28;20024;-71
2022/04/06 07:03:05;;;;;;;6.07;0.70;;;;;;;;;;5281688;28;20021;-71
2022/04/06 07:05:37;;;;;;;7.10;0.40;;;;;;;;;;5280707;28;20625;-70
2022/04/06 07:08:08;;;;;;;2.97;0.40;;;;;;;;;;5281396;28;20263;-69
2022/04/06 07:10:43;;;;;;;4.63;0.30;;;;;;;;;;5281045;28;20526;-69
2022/04/06 07:13:16;;;;;;;6.97;0.40;;;;;;;;;;5279808;28;20049;-72
2022/04/06 07:15:47;;;;;;;5.68;0.40;;;;;;;;;;5280901;28;20032;-71
2022/04/06 07:18:21;;;;;;;8.98;0.50;;;;;;;;;;5280340;28;20573;-70
2022/04/06 07:20:52;;;;;;;8.18;1.25;;;;;;;;;;5281523;28;20467;-70
2022/04/06 07:23:23;;;;;;;7.30;1.02;;;;;;;;;;5280892;28;20039;-70
2022/04/06 07:25:54;;;;;;;7.90;0.85;;;;;;;;;;5280487;28;20086;-70
2022/04/06 07:28:26;;;;;;;11.73;1.65;;;;;;;;;;5280561;28;20112;-70
2022/04/06 07:30:57;;;;;;;13.48;1.20;;;;;;;;;;5281622;28;20103;-70
2022/04/06 07:33:28;;;;;;;10.13;1.08;;;;;;;;;;5279790;28;20032;-70
2022/04/06 07:35:59;;;;;;;8.88;1.38;;;;;;;;;;5281390;28;20297;-70
2022/04/06 07:38:31;;;;;;;8.18;1.00;;;;;;;;;;5280581;28;20021;-70
2022/04/06 07:41:02;;;;;;;5.85;1.10;;;;;;;;;;5280360;28;20332;-70
2022/04/06 07:43:33;;;;;;;6.95;1.15;;;;;;;;;;5280794;28;20009;-70
2022/04/06 07:46:05;;;;;;;9.52;1.55;;;;;;;;;;5281446;28;20024;-70
2022/04/06 07:48:39;;;;;;;7.00;0.93;;;;;;;;;;5280104;28;20013;-70
2022/04/06 07:51:10;;;;;;;12.70;1.58;;;;;;;;;;5281085;28;20099;-70
2022/04/06 07:53:41;;;;;;;10.40;2.17;;;;;;;;;;5279937;28;20471;-69
2022/04/06 07:56:13;;;;;;;8.52;0.93;;;;;;;;;;5281170;28;20040;-70
2022/04/06 07:58:44;;;;;;;10.43;1.10;;;;;;;;;;5280578;28;20271;-70
2022/04/06 08:01:15;;;;;;;9.45;1.27;;;;;;;;;;5280378;28;20028;-70
2022/04/06 08:03:47;;;;;;;7.82;0.98;;;;;;;;;;5280522;28;20039;-70
2022/04/06 08:06:18;;;;;;;8.70;0.90;;;;;;;;;;5280989;28;20277;-71
2022/04/06 08:08:51;;;;;;;5.93;0.98;;;;;;;;;;5279954;28;20024;-71
2022/04/06 08:11:23;;;;;;;6.63;1.48;;;;;;;;;;5280592;28;20275;-70
2022/04/06 08:13:54;;;;;;;10.73;1.67;;;;;;;;;;5280993;28;20063;-70
2022/04/06 08:16:25;;;;;;;8.95;0.85;;;;;;;;;;5279484;28;20037;-70
2022/04/06 08:18:56;;;;;;;7.45;1.00;;;;;;;;;;5281073;28;20047;-70
2022/04/06 08:21:27;;;;;;;10.63;1.05;;;;;;;;;;5279517;28;20749;-69
2022/04/06 08:23:58;;;;;;;8.63;0.98;;;;;;;;;;5280882;28;20310;-68
2022/04/06 08:26:30;;;;;;;8.95;1.30;;;;;;;;;;5279039;28;20078;-69
2022/04/06 08:29:01;;;;;;;5.78;0.90;;;;;;;;;;5283315;28;20027;-69
2022/04/06 08:31:32;;;;;;;9.02;1.48;;;;;;;;;;5284376;28;20040;-69
2022/04/06 08:34:06;;;;;;;7.90;1.27;;;;;;;;;;5284525;28;20358;-68
2022/04/06 08:36:39;;;;;;;12.95;1.02;;;;;;;;;;5283072;28;20028;-69
2022/04/06 08:39:11;;;;;;;5.60;0.70;;;;;;;;;;5284525;28;20016;-69
2022/04/06 08:41:42;;;;;;;9.35;0.90;;;;;;;;;;5283826;28;20043;-69
2022/04/06 08:44:13;;;;;;;9.30;1.23;;;;;;;;;;5283832;28;20371;-69
2022/04/06 08:46:45;;;;;;;5.68;1.05;;;;;;;;;;5284009;28;20008;-68
2022/04/06 08:49:16;;;;;;;6.97;0.88;;;;;;;;;;5284485;28;20104;-69
2022/04/06 08:51:47;;;;;;;11.95;1.02;;;;;;;;;;5283030;28;20036;-68
2022/04/06 08:54:19;;;;;;;8.95;0.82;;;;;;;;;;5284252;28;20021;-69
2022/04/06 08:56:50;;;;;;;8.70;0.70;;;;;;;;;;5283349;28;20029;-70
2022/04/06 08:59:22;;;;;;;7.68;0.90;;;;;;;;;;5283757;28;20054;-69
2022/04/06 09:01:53;;;;;;;7.72;1.02;;;;;;;;;;5284366;28;20266;-69
2022/04/06 09:04:25;;;;;;;7.35;0.90;;;;;;;;;;5283038;28;20020;-70
2022/04/06 09:07:05;;;;;;;9.85;0.80;;;;;;;;;;5284364;28;20020;-69
2022/04/06 09:09:36;;;;;;;8.02;1.10;;;;;;;;;;5283600;28;20387;-69
2022/04/06 09:12:08;;;;;;;9.23;1.20;;;;;;;;;;5283106;28;20033;-69
2022/04/06 09:14:39;;;;;;;5.10;1.23;;;;;;;;;;5283289;28;20047;-69
2022/04/06 09:17:10;;;;;;;5.43;1.13;;;;;;;;;;5284196;28;20028;-69
2022/04/06 09:19:46;;;;;;;7.43;0.82;;;;;;;;;;5282682;28;20316;-69
2022/04/06 09:22:17;;;;;;;12.43;1.27;;;;;;;;;;5284227;28;20024;-69
2022/04/06 09:24:58;;;;;;;9.52;1.30;;;;;;;;;;5282417;28;20100;-69
2022/04/06 09:27:30;;;;;;;7.95;0.85;;;;;;;;;;5283412;28;20028;-69
2022/04/06 09:30:03;;;;;;;6.47;0.65;;;;;;;;;;5283837;28;20047;-69
2022/04/06 09:32:34;;;;;;;5.63;0.65;;;;;;;;;;5282255;28;20052;-68
2022/04/06 09:35:25;;;;;;;10.13;1.05;;;;;;;;;;5283492;28;20088;-69
2022/04/06 09:38:09;;;;;;;6.03;1.00;;;;;;;;;;5266715;28;20028;-68
2022/04/06 09:40:41;;;;;;;8.02;1.35;;;;;;;;;;5281127;28;20020;-69
2022/04/06 09:43:28;;;;;;;7.43;0.95;;;;;;;;;;5281693;28;20078;-69
2022/04/06 09:49:08;;;;;;;7.22;0.77;;;;;;;;;;5283146;28;20169;-69
2022/04/06 09:51:40;;;;;;;7.10;1.73;;;;;;;;;;5282623;28;20012;-68
2022/04/06 09:54:12;;;;;;;8.10;0.80;;;;;;;;;;5282479;28;20111;-70
2022/04/06 09:56:44;;;;;;;6.15;0.80;;;;;;;;;;5282532;28;20547;-70
2022/04/06 09:59:15;;;;;;;8.15;1.42;;;;;;;;;;5282792;28;20021;-70
2022/04/06 10:01:52;;;;;;;7.40;1.13;;;;;;;;;;5281705;28;20089;-70
2022/04/06 10:04:24;;;;;;;4.88;0.90;;;;;;;;;;5282363;28;20384;-70
2022/04/06 10:06:56;;;;;;;6.43;0.95;;;;;;;;;;5282463;28;20094;-70
2022/04/06 10:09:27;;;;;;;9.10;1.25;;;;;;;;;;5282441;28;20052;-71
2022/04/06 10:11:58;;;;;;;7.57;1.23;;;;;;;;;;5282471;28;20110;-70
2022/04/06 10:14:30;;;;;;;8.57;1.00;;;;;;;;;;5281472;28;20154;-70
2022/04/06 10:17:02;;;;;;;8.10;0.93;;;;;;;;;;5270901;28;20189;-70
2022/04/06 10:19:36;;;;;;;9.27;1.13;;;;;;;;;;5260545;28;20374;-70
2022/04/06 10:22:18;;;;;;;5.40;1.55;;;;;;;;;;5260438;28;20025;-70
2022/04/06 10:25:01;;;;;;;7.70;1.45;;;;;;;;;;5260931;28;20101;-70
2022/04/06 10:27:34;;;;;;;7.40;1.83;;;;;;;;;;5260456;28;20028;-70
2022/04/06 10:30:05;;;;;;;6.57;1.00;;;;;;;;;;5260068;28;20257;-70
2022/04/06 10:32:41;;;;;;;4.97;0.80;;;;;;;;;;5260328;28;20067;-70
2022/04/06 10:35:19;;;;;;;9.02;0.90;;;;;;;;;;5260157;28;20279;-71
2022/04/06 10:37:52;;;;;;;4.70;1.33;;;;;;;;;;5260390;28;20429;-70
2022/04/06 10:40:24;;;;;;;9.95;1.27;;;;;;;;;;5260304;28;20282;-70
2022/04/06 10:42:55;;;;;;;6.47;1.20;;;;;;;;;;5259902;28;20028;-70
2022/04/06 10:45:29;;;;;;;7.60;1.27;;;;;;;;;;5259753;28;20045;-70
2022/04/06 10:48:10;;;;;;;7.03;1.05;;;;;;;;;;5260400;28;20366;-70
2022/04/06 10:50:42;;;;;;;5.38;0.90;;;;;;;;;;5259238;28;20108;-70
2022/04/06 10:53:20;;;;;;;6.50;0.85;;;;;;;;;;5260860;28;20100;-70
2022/04/06 10:56:11;;;;;;;5.15;1.17;;;;;;;;;;5260003;28;20051;-70
2022/04/06 10:58:55;;;;;;;5.82;0.73;;;;;;;;;;5259624;28;20017;-71
2022/04/06 11:01:29;;;;;;;3.47;0.60;;;;;;;;;;5259666;28;20040;-71
2022/04/06 11:04:04;;;;;;;7.20;1.08;;;;;;;;;;5259489;28;20017;-70
2022/04/06 11:06:41;;;;;;;7.80;1.00;;;;;;;;;;5259739;28;20029;-69
2022/04/06 11:12:28;;;;;;;6.88;0.80;;;;;;;;;;5258521;28;20052;-69
2022/04/06 11:14:59;;;;;;;4.95;0.60;;;;;;;;;;5260301;28;20431;-70
2022/04/06 11:17:32;;;;;;;4.63;0.80;;;;;;;;;;5259357;28;20049;-70
2022/04/06 11:20:09;;;;;;;5.07;0.60;;;;;;;;;;5261153;28;20025;-69
2022/04/06 11:22:45;;;;;;;4.82;0.68;;;;;;;;;;5260301;28;20028;-70
2022/04/06 11:25:17;;;;;;;2.55;0.50;;;;;;;;;;5259998;28;20021;-70
2022/04/06 11:27:48;;;;;;;3.47;0.70;;;;;;;;;;5259846;28;20027;-70
2022/04/06 11:30:21;;;;;;;4.57;0.65;;;;;;;;;;5260415;28;20062;-70
2022/04/06 11:32:54;;;;;;;3.95;0.60;;;;;;;;;;5259980;28;20109;-70
2022/04/06 11:35:28;;;;;;;6.22;1.10;;;;;;;;;;5260079;28;20021;-71
2022/04/06 11:38:00;;;;;;;3.97;0.65;;;;;;;;;;5260602;28;20032;-70
2022/04/06 11:40:31;;;;;;;4.13;0.60;;;;;;;;;;5259216;28;20017;-70
2022/04/06 11:43:05;;;;;;;4.95;0.70;;;;;;;;;;5260417;28;20021;-70
2022/04/06 11:45:40;;;;;;;7.97;0.82;;;;;;;;;;5259136;28;20135;-69
2022/04/06 11:48:15;;;;;;;5.78;0.98;;;;;;;;;;5260400;28;20471;-70
2022/04/06 11:50:48;;;;;;;4.95;0.75;;;;;;;;;;5259617;28;20029;-69
2022/04/06 11:53:20;;;;;;;3.30;0.77;;;;;;;;;;5259564;28;20074;-69
2022/04/06 11:55:53;;;;;;;3.03;0.70;;;;;;;;;;5260115;28;20032;-69
2022/04/06 11:58:37;;;;;;;4.82;0.90;;;;;;;;;;5259800;28;20035;-69
2022/04/06 12:01:10;;;;;;;3.50;0.80;;;;;;;;;;5265543;28;20016;-70
2022/04/06 12:03:42;;;;;;;8.50;0.98;;;;;;;;;;5263036;28;20029;-69
2022/04/06 12:06:14;;;;;;;3.42;0.60;;;;;;;;;;5263606;28;20422;-70
2022/04/06 12:08:46;;;;;;;6.90;1.05;;;;;;;;;;5262365;28;20097;-70
2022/04/06 12:11:20;;;;;;;4.47;1.00;;;;;;;;;;5263274;28;20043;-69
2022/04/06 12:13:52;;;;;;;6.28;1.20;;;;;;;;;;5262260;28;20128;-68
2022/04/06 12:16:23;;;;;;;5.15;0.70;;;;;;;;;;5262413;28;20116;-68
2022/04/06 12:18:55;;;;;;;5.82;1.45;;;;;;;;;;5263376;28;20467;-69
2022/04/06 12:21:28;;;;;;;4.32;1.13;;;;;;;;;;5261985;28;20558;-69
2022/04/06 12:23:59;;;;;;;5.15;1.13;;;;;;;;;;5272659;28;20278;-69
2022/04/06 12:26:38;;;;;;;4.35;0.77;;;;;;;;;;5282975;28;20032;-69
2022/04/06 12:29:12;;;;;;;4.15;1.05;;;;;;;;;;5283551;28;20745;-69
2022/04/06 12:31:44;;;;;;;3.85;0.77;;;;;;;;;;5282813;28;20074;-69
2022/04/06 12:34:35;;;;;;;3.17;0.60;;;;;;;;;;5283958;28;20104;-69
2022/04/06 12:39:57;;;;;;;5.28;0.98;;;;;;;;;;5284682;28;20033;-70
2022/04/06 12:42:34;;;;;;;3.88;1.08;;;;;;;;;;5283044;28;20087;-71
2022/04/06 12:45:06;;;;;;;4.97;1.00;;;;;;;;;;5284620;28;20032;-70
2022/04/06 12:47:37;;;;;;;5.97;0.70;;;;;;;;;;5283861;28;20367;-71
2022/04/06 12:50:16;;;;;;;4.85;1.00;;;;;;;;;;5283600;28;20368;-70
2022/04/06 12:53:03;;;;;;;4.65;0.80;;;;;;;;;;5283977;28;20283;-70
2022/04/06 12:55:34;;;;;;;5.47;1.45;;;;;;;;;;5283507;28;20033;-70
2022/04/06 12:58:18;;;;;;;6.55;1.05;;;;;;;;;;5284187;28;20047;-69
2022/04/06 13:00:58;;;;;;;6.80;1.73;;;;;;;;;;5284155;28;20471;-69
2022/04/06 13:03:30;;;;;;;3.10;0.70;;;;;;;;;;5282989;28;20017;-71
2022/04/06 13:06:01;;;;;;;3.22;1.05;;;;;;;;;;5284233;28;20036;-70
2022/04/06 13:08:32;;;;;;;6.35;1.98;;;;;;;;;;5283647;28;20487;-69
2022/04/06 13:11:03;;;;;;;3.35;0.80;;;;;;;;;;5282103;28;20270;-70
2022/04/06 13:13:34;;;;;;;2.92;0.88;;;;;;;;;;5283115;28;20052;-70
2022/04/06 13:16:05;;;;;;;5.25;1.13;;;;;;;;;;5283647;28;20467;-69
2022/04/06 13:18:37;;;;;;;3.28;0.85;;;;;;;;;;5282685;28;20266;-69
2022/04/06 13:21:08;;;;;;;3.85;0.60;;;;;;;;;;5283919;28;20409;-70
2022/04/06 13:23:39;;;;;;;3.13;1.17;;;;;;;;;;5283309;28;20528;-70
2022/04/06 13:26:11;;;;;;;3.15;0.90;;;;;;;;;;5283099;28;20032;-70
2022/04/06 13:28:42;;;;;;;5.40;0.85;;;;;;;;;;5283103;28;20017;-70
2022/04/06 13:31:14;;;;;;;4.78;0.90;;;;;;;;;;5283136;28;20460;-71
2022/04/06 13:33:45;;;;;;;2.47;0.80;;;;;;;;;;5283290;28;20032;-70
2022/04/06 13:36:17;;;;;;;3.15;0.63;;;;;;;;;;5283623;28;20032;-70
2022/04/06 13:38:48;;;;;;;5.63;0.70;;;;;;;;;;5282231;28;20324;-72
2022/04/06 13:41:20;;;;;;;3.67;0.77;;;;;;;;;;5283072;28;20033;-70
2022/04/06 13:43:51;;;;;;;4.72;0.57;;;;;;;;;;5283369;28;20025;-71
2022/04/06 13:46:22;;;;;;;3.92;0.68;;;;;;;;;;5281918;28;20074;-69
2022/04/06 13:48:57;;;;;;;4.10;0.80;;;;;;;;;;5283181;28;20282;-70
2022/04/06 13:51:29;;;;;;;3.88;0.60;;;;;;;;;;5282594;28;20052;-69
2022/04/06 13:54:00;;;;;;;3.45;0.80;;;;;;;;;;5282778;28;20492;-70
2022/04/06 13:56:31;;;;;;;5.53;0.80;;;;;;;;;;5263740;28;20036;-69
2022/04/06 13:59:03;;;;;;;4.15;0.93;;;;;;;;;;5281539;28;20066;-69
2022/04/06 14:01:34;;;;;;;3.20;0.63;;;;;;;;;;5281517;28;20285;-69
2022/04/06 14:04:06;;;;;;;2.78;0.75;;;;;;;;;;5282155;28;20456;-69
2022/04/06 14:06:37;;;;;;;3.30;0.70;;;;;;;;;;5280572;28;20149;-69
2022/04/06 14:09:11;;;;;;;3.88;0.88;;;;;;;;;;5282300;28;20071;-69
2022/04/06 14:11:43;;;;;;;3.58;0.85;;;;;;;;;;5281133;28;20045;-69
2022/04/06 14:14:14;;;;;;;5.90;0.65;;;;;;;;;;5280676;28;20400;-69
2022/04/06 14:16:45;;;;;;;5.43;1.30;;;;;;;;;;5281021;28;20032;-69
2022/04/06 14:19:16;;;;;;;5.18;0.88;;;;;;;;;;5282050;28;20074;-70
2022/04/06 14:21:48;;;;;;;5.03;1.10;;;;;;;;;;5280045;28;20035;-70
2022/04/06 14:24:20;;;;;;;2.90;0.60;;;;;;;;;;5281390;28;20259;-70
2022/04/06 14:26:51;;;;;;;4.50;0.70;;;;;;;;;;5281292;28;20025;-70
2022/04/06 14:29:22;;;;;;;2.58;0.75;;;;;;;;;;5280488;28;20029;-70
2022/04/06 14:31:54;;;;;;;3.73;0.80;;;;;;;;;;5281574;28;20028;-70
2022/04/06 14:34:25;;;;;;;3.70;1.17;;;;;;;;;;5279798;28;20837;-70
2022/04/06 14:36:56;;;;;;;6.43;0.60;;;;;;;;;;5281372;28;20032;-70
2022/04/06 14:39:27;;;;;;;5.13;0.95;;;;;;;;;;5280826;28;20032;-70
2022/04/06 14:41:58;;;;;;;4.25;0.98;;;;;;;;;;5280722;28;20345;-70
2022/04/06 14:44:29;;;;;;;4.13;0.90;;;;;;;;;;5280343;28;20290;-70
2022/04/06 14:47:01;;;;;;;3.38;0.77;;;;;;;;;;5281672;28;20142;-69
2022/04/06 14:49:32;;;;;;;4.18;0.90;;;;;;;;;;5279953;28;20119;-70
2022/04/06 14:52:04;;;;;;;2.50;1.13;;;;;;;;;;5281451;28;20776;-70
2022/04/06 14:54:35;;;;;;;2.67;0.70;;;;;;;;;;5280210;28;20354;-70
2022/04/06 14:57:07;;;;;;;2.45;0.65;;;;;;;;;;5280126;28;20111;-70
2022/04/06 14:59:38;;;;;;;2.20;0.75;;;;;;;;;;5280310;28;20791;-70
2022/04/06 15:02:12;;;;;;;5.88;1.13;;;;;;;;;;5281064;28;20020;-70
2022/04/06 15:04:44;;;;;;;6.38;1.10;;;;;;;;;;5280369;28;20024;-70
2022/04/06 15:07:17;;;;;;;3.92;1.67;;;;;;;;;;5280832;28;20095;-70
2022/04/06 15:09:48;;;;;;;2.20;0.95;;;;;;;;;;5279517;28;20463;-70
2022/04/06 15:12:20;;;;;;;3.72;1.05;;;;;;;;;;5280386;28;20024;-69
2022/04/06 15:14:51;;;;;;;4.05;1.08;;;;;;;;;;5280528;28;20028;-69
2022/04/06 15:17:22;;;;;;;3.05;1.05;;;;;;;;;;5279379;28;20282;-70
2022/04/06 15:19:54;;;;;;;2.40;1.05;;;;;;;;;;5280698;28;20367;-69